Terminal Aerodrome Forecast
Issued by NWS

Home | Current Version | Previous Version | Text Only | Print | Product List | Glossary On
Versions: 1 2 3 4 5 6 7 8 9 10 11 12 13 14 15
993
FTUS43 KICT 071140 AAA
TAFCNU
TAF AMD
KCNU 071140Z 0712/0812 06008KT P6SM BKN080
     FM071800 05011KT P6SM SCT025 OVC045
      TEMPO 0719/0723 5SM -SN BR SCT015 OVC025
     FM072300 01010KT P6SM SCT015 OVC025
     FM080400 01008KT P6SM BKN035
     FM080600 34010KT P6SM SCT150=

USA.gov is the U.S. government's official web portal to all federal, state and local government web resources and services.